Time;durP1;ratioP1;P1;durP2;ratioP2;P2;SDS_P1;SDS_P2;PMS_P1;PMS_P2;Temp;Humidity;BMP_temperature;BMP_pressure;BME280_temperature;BME280_humidity;BME280_pressure;Samples;Min_cycle;Max_cycle;Signal;HPM_P1;HPM_P2
2021/03/21 00:00:33;;;;;;;;;;;1.40;93.00;;;;;;5092354;28;20007;-75
2021/03/21 00:02:59;;;;;;;;;;;1.40;92.90;;;;;;5093655;28;19943;-78
2021/03/21 00:05:25;;;;;;;;;;;1.40;93.20;;;;;;5093056;28;20369;-79
2021/03/21 00:08:04;;;;;;;;;;;1.40;92.90;;;;;;5086971;28;19920;-76
2021/03/21 00:10:30;;;;;;;;;;;1.50;92.90;;;;;;5097307;28;19908;-75
2021/03/21 00:12:57;;;;;;;;;;;1.40;93.30;;;;;;5090411;28;19915;-75
2021/03/21 00:15:23;;;;;;;;;;;1.50;93.80;;;;;;5091882;28;20293;-75
2021/03/21 00:17:48;;;;;;;;;;;1.50;93.80;;;;;;5092756;28;20029;-75
2021/03/21 00:20:15;;;;;;;;;;;1.40;92.70;;;;;;5092734;28;19992;-75
2021/03/21 00:22:40;;;;;;;;;;;1.50;93.20;;;;;;5092952;28;19908;-75
2021/03/21 00:25:13;;;;;;;;;;;1.50;93.10;;;;;;5093050;28;20289;-75
2021/03/21 00:27:38;;;;;;;;;;;1.40;92.70;;;;;;5092446;28;19912;-75
2021/03/21 00:30:06;;;;;;;;;;;1.40;92.80;;;;;;5092951;28;20430;-75
2021/03/21 00:32:31;;;;;;;;;;;1.40;92.20;;;;;;5092344;28;19908;-78
2021/03/21 00:34:57;;;;;;;;;;;1.40;92.50;;;;;;5092727;28;20300;-75
2021/03/21 00:37:22;;;;;;;;;;;1.40;92.40;;;;;;5092448;28;19919;-75
2021/03/21 00:39:48;;;;;;;;;;;1.40;92.10;;;;;;5090118;28;19912;-77
2021/03/21 00:42:13;;;;;;;;;;;1.40;92.20;;;;;;5092297;28;19908;-75
2021/03/21 00:44:39;;;;;;;;;;;1.40;92.20;;;;;;5092579;28;19915;-75
2021/03/21 00:47:04;;;;;;;;;;;1.40;92.40;;;;;;5092240;28;19915;-75
2021/03/21 00:49:30;;;;;;;;;;;1.40;92.10;;;;;;5092261;28;19908;-78
2021/03/21 00:51:55;;;;;;;;;;;1.40;91.80;;;;;;5092357;28;19908;-75
2021/03/21 00:54:21;;;;;;;;;;;1.40;91.80;;;;;;5092632;28;20257;-75
2021/03/21 00:56:47;;;;;;;;;;;1.30;91.30;;;;;;5091861;28;19915;-76
2021/03/21 00:59:12;;;;;;;;;;;1.40;91.60;;;;;;5091716;28;19916;-75
2021/03/21 01:01:38;;;;;;;;;;;1.40;92.10;;;;;;5090886;28;19914;-76
2021/03/21 01:04:04;;;;;;;;;;;1.40;92.00;;;;;;5089981;28;20369;-77
2021/03/21 01:06:30;;;;;;;;;;;1.40;91.80;;;;;;5098727;28;20285;-78
2021/03/21 01:08:57;;;;;;;;;;;1.40;91.70;;;;;;5097453;28;19954;-74
2021/03/21 01:11:28;;;;;;;;;;;1.40;91.70;;;;;;5092613;28;19912;-76
2021/03/21 01:13:54;;;;;;;;;;;1.30;91.30;;;;;;5092713;28;19957;-75
2021/03/21 01:16:22;;;;;;;;;;;1.30;91.20;;;;;;5091859;28;19908;-75
2021/03/21 01:18:48;;;;;;;;;;;1.30;90.70;;;;;;5091977;28;19916;-75
2021/03/21 01:21:14;;;;;;;;;;;1.30;90.50;;;;;;5092469;28;20007;-75
2021/03/21 01:23:40;;;;;;;;;;;1.20;90.90;;;;;;5092687;28;20003;-75
2021/03/21 01:26:06;;;;;;;;;;;1.30;91.10;;;;;;5092099;28;20430;-75
2021/03/21 01:28:36;;;;;;;;;;;1.20;91.30;;;;;;5092429;28;19908;-75
2021/03/21 01:31:03;;;;;;;;;;;1.20;91.60;;;;;;5092154;28;19908;-75
2021/03/21 01:33:30;;;;;;;;;;;1.20;92.00;;;;;;5092192;28;20442;-79
2021/03/21 01:35:56;;;;;;;;;;;1.20;92.10;;;;;;5091437;28;20278;-75
2021/03/21 01:38:22;;;;;;;;;;;1.20;91.90;;;;;;5101388;28;19915;-75
2021/03/21 01:40:49;;;;;;;;;;;1.20;92.10;;;;;;5102718;28;19912;-76
2021/03/21 01:43:16;;;;;;;;;;;1.20;92.00;;;;;;5095378;28;19915;-74
2021/03/21 01:45:43;;;;;;;;;;;1.20;91.90;;;;;;5090218;28;19915;-79
2021/03/21 01:48:15;;;;;;;;;;;1.20;91.60;;;;;;5090772;28;20296;-74
2021/03/21 01:50:49;;;;;;;;;;;1.20;91.20;;;;;;5092020;28;20434;-75
2021/03/21 01:53:17;;;;;;;;;;;1.20;91.90;;;;;;5091988;28;19931;-75
2021/03/21 01:55:42;;;;;;;;;;;1.10;92.30;;;;;;5091467;28;20109;-75
2021/03/21 01:58:08;;;;;;;;;;;1.10;92.50;;;;;;5091684;28;20262;-76
2021/03/21 02:00:36;;;;;;;;;;;1.10;92.50;;;;;;5091643;28;19912;-75
2021/03/21 02:03:01;;;;;;;;;;;1.10;92.80;;;;;;5091731;28;19919;-74
2021/03/21 02:05:27;;;;;;;;;;;1.10;93.00;;;;;;5091743;28;19916;-75
2021/03/21 02:08:11;;;;;;;;;;;1.10;93.00;;;;;;5084943;28;20269;-75
2021/03/21 02:10:40;;;;;;;;;;;1.10;93.10;;;;;;5091322;28;20459;-75
2021/03/21 02:13:19;;;;;;;;;;;1.10;93.00;;;;;;5091518;28;19908;-79
2021/03/21 02:15:53;;;;;;;;;;;1.10;92.90;;;;;;5091113;28;19931;-75
2021/03/21 02:18:51;;;;;;;;;;;1.20;93.20;;;;;;5091513;28;19908;-75
2021/03/21 02:21:19;;;;;;;;;;;1.10;92.90;;;;;;5091312;28;19916;-78
2021/03/21 02:24:03;;;;;;;;;;;1.10;93.20;;;;;;5091390;28;19908;-75
2021/03/21 02:26:47;;;;;;;;;;;1.10;93.60;;;;;;5091167;28;20410;-78
2021/03/21 02:29:12;;;;;;;;;;;1.10;93.10;;;;;;5091257;28;19908;-79
2021/03/21 02:31:50;;;;;;;;;;;1.10;93.30;;;;;;5091343;28;20026;-74
2021/03/21 02:34:18;;;;;;;;;;;1.10;93.10;;;;;;5091300;28;19961;-75
2021/03/21 02:36:45;;;;;;;;;;;1.20;93.40;;;;;;5089974;28;20323;-75
2021/03/21 02:39:23;;;;;;;;;;;1.20;93.50;;;;;;5087195;28;19908;-75
2021/03/21 02:41:52;;;;;;;;;;;1.20;93.70;;;;;;5089964;28;19908;-75
2021/03/21 02:44:25;;;;;;;;;;;1.20;93.60;;;;;;5091338;28;19947;-75
2021/03/21 02:46:53;;;;;;;;;;;1.20;93.40;;;;;;5090934;28;19966;-78
2021/03/21 02:49:22;;;;;;;;;;;1.10;93.90;;;;;;5091254;28;19912;-78
2021/03/21 02:51:51;;;;;;;;;;;1.10;93.80;;;;;;5091250;28;20360;-75
2021/03/21 02:54:21;;;;;;;;;;;1.20;93.90;;;;;;5091032;28;19908;-75
2021/03/21 02:56:49;;;;;;;;;;;1.20;93.80;;;;;;5091123;28;19985;-78
2021/03/21 02:59:16;;;;;;;;;;;1.10;94.20;;;;;;5091055;28;19928;-79
2021/03/21 03:01:50;;;;;;;;;;;1.20;94.10;;;;;;5091022;28;19908;-75
2021/03/21 03:04:18;;;;;;;;;;;1.20;94.10;;;;;;5091077;28;20487;-76
2021/03/21 03:06:47;;;;;;;;;;;1.20;94.00;;;;;;5089278;28;19915;-75
2021/03/21 03:09:25;;;;;;;;;;;1.20;93.60;;;;;;5087168;28;20007;-75
2021/03/21 03:11:56;;;;;;;;;;;1.20;93.90;;;;;;5091111;28;19915;-75
2021/03/21 03:14:30;;;;;;;;;;;1.20;93.50;;;;;;5091056;28;19908;-75
2021/03/21 03:16:58;;;;;;;;;;;1.20;93.80;;;;;;5090836;28;20308;-80
2021/03/21 03:19:39;;;;;;;;;;;1.20;93.90;;;;;;5090702;28;19914;-75
2021/03/21 03:22:12;;;;;;;;;;;1.20;93.80;;;;;;5090893;28;19915;-75
2021/03/21 03:24:37;;;;;;;;;;;1.20;93.90;;;;;;5090950;28;20003;-75
2021/03/21 03:27:21;;;;;;;;;;;1.10;93.90;;;;;;5090426;28;19913;-75
2021/03/21 03:29:49;;;;;;;;;;;1.20;94.20;;;;;;5090612;28;19908;-75
2021/03/21 03:32:15;;;;;;;;;;;1.10;94.00;;;;;;5090834;28;19915;-75
2021/03/21 03:34:42;;;;;;;;;;;1.20;94.10;;;;;;5090786;28;19916;-75
2021/03/21 03:37:08;;;;;;;;;;;1.20;93.70;;;;;;5085765;28;19920;-78
2021/03/21 03:39:35;;;;;;;;;;;1.20;93.90;;;;;;5089586;28;19920;-75
2021/03/21 03:42:10;;;;;;;;;;;1.20;94.20;;;;;;5093897;28;20338;-75
2021/03/21 03:44:40;;;;;;;;;;;1.20;94.00;;;;;;5094431;28;19912;-75
2021/03/21 03:47:12;;;;;;;;;;;1.10;94.10;;;;;;5093891;28;20001;-75
2021/03/21 03:49:37;;;;;;;;;;;1.20;94.00;;;;;;5094257;28;19931;-75
2021/03/21 03:52:06;;;;;;;;;;;1.20;94.00;;;;;;5093037;28;20377;-75
2021/03/21 03:54:36;;;;;;;;;;;1.10;94.40;;;;;;5094205;28;20052;-76
2021/03/21 03:57:08;;;;;;;;;;;1.10;94.80;;;;;;5093810;28;19909;-75
2021/03/21 03:59:54;;;;;;;;;;;1.10;95.00;;;;;;5094024;28;19916;-75
2021/03/21 04:02:23;;;;;;;;;;;1.20;94.80;;;;;;5093840;28;19908;-75
2021/03/21 04:05:03;;;;;;;;;;;1.10;94.70;;;;;;5093773;28;19930;-75
2021/03/21 04:07:38;;;;;;;;;;;1.10;94.40;;;;;;5087675;28;19919;-75
2021/03/21 04:10:16;;;;;;;;;;;1.10;94.30;;;;;;5093455;28;19915;-75
2021/03/21 04:12:44;;;;;;;;;;;1.10;94.30;;;;;;5093635;28;19915;-75
2021/03/21 04:15:15;;;;;;;;;;;1.20;93.60;;;;;;5093601;28;19908;-75
2021/03/21 04:17:50;;;;;;;;;;;1.20;93.70;;;;;;5093032;28;19908;-75
2021/03/21 04:20:19;;;;;;;;;;;1.20;93.60;;;;;;5093540;28;19916;-76
2021/03/21 04:22:54;;;;;;;;;;;1.20;93.70;;;;;;5093513;28;19931;-76
2021/03/21 04:25:25;;;;;;;;;;;1.20;94.30;;;;;;5093543;28;19908;-76
2021/03/21 04:27:53;;;;;;;;;;;1.10;94.70;;;;;;5093135;28;19912;-75
2021/03/21 04:30:27;;;;;;;;;;;1.10;95.00;;;;;;5093351;28;20396;-75
2021/03/21 04:32:53;;;;;;;;;;;1.10;95.20;;;;;;5093395;28;20007;-75
2021/03/21 04:35:30;;;;;;;;;;;1.10;95.40;;;;;;5093261;28;19923;-75
2021/03/21 04:38:01;;;;;;;;;;;1.10;95.50;;;;;;5093241;28;20318;-75
2021/03/21 04:40:27;;;;;;;;;;;1.10;95.60;;;;;;5113327;28;19937;-75
2021/03/21 04:42:56;;;;;;;;;;;1.10;95.40;;;;;;5113509;28;20058;-75
2021/03/21 04:45:33;;;;;;;;;;;1.10;95.30;;;;;;5113601;28;19953;-75
2021/03/21 04:48:01;;;;;;;;;;;1.10;95.30;;;;;;5113239;28;20288;-75
2021/03/21 04:50:26;;;;;;;;;;;1.10;95.40;;;;;;5113515;28;20011;-75
2021/03/21 04:52:58;;;;;;;;;;;1.10;95.30;;;;;;5110748;28;19950;-78
2021/03/21 04:55:25;;;;;;;;;;;1.10;95.10;;;;;;5113251;28;20357;-77
2021/03/21 04:57:54;;;;;;;;;;;1.10;95.20;;;;;;5113065;28;19907;-75
2021/03/21 05:00:27;;;;;;;;;;;1.10;95.30;;;;;;5113172;28;20006;-76
2021/03/21 05:02:56;;;;;;;;;;;1.10;95.30;;;;;;5113274;28;19911;-75
2021/03/21 05:05:27;;;;;;;;;;;1.10;95.00;;;;;;5112995;28;19961;-79
2021/03/21 05:07:55;;;;;;;;;;;1.10;95.10;;;;;;5101608;28;19915;-75
2021/03/21 05:10:25;;;;;;;;;;;1.10;95.00;;;;;;5101831;28;20368;-75
2021/03/21 05:13:03;;;;;;;;;;;1.10;95.20;;;;;;5112896;28;19907;-75
2021/03/21 05:15:42;;;;;;;;;;;1.20;95.20;;;;;;5111878;28;19908;-75
2021/03/21 05:18:20;;;;;;;;;;;1.10;95.10;;;;;;5112684;28;19914;-79
2021/03/21 05:20:55;;;;;;;;;;;1.20;95.00;;;;;;5112674;28;19956;-75
2021/03/21 05:23:28;;;;;;;;;;;1.20;94.80;;;;;;5112821;28;20289;-78
2021/03/21 05:25:56;;;;;;;;;;;1.10;94.80;;;;;;5101811;28;19953;-75
2021/03/21 05:28:40;;;;;;;;;;;1.10;94.90;;;;;;5110025;28;19933;-75
2021/03/21 05:31:06;;;;;;;;;;;1.20;95.30;;;;;;5112662;28;19915;-75
2021/03/21 05:33:31;;;;;;;;;;;1.20;95.30;;;;;;5111465;28;19908;-75
2021/03/21 05:35:58;;;;;;;;;;;1.20;95.10;;;;;;5112011;28;19915;-76
2021/03/21 05:38:31;;;;;;;;;;;1.20;95.30;;;;;;5112357;28;19915;-75
2021/03/21 05:41:15;;;;;;;;;;;1.20;95.40;;;;;;5112142;28;19912;-76
2021/03/21 05:43:59;;;;;;;;;;;1.20;95.40;;;;;;5108913;28;20663;-76
2021/03/21 05:46:43;;;;;;;;;;;1.20;95.00;;;;;;5092937;28;19954;-77
2021/03/21 05:49:13;;;;;;;;;;;1.20;95.40;;;;;;5110861;28;19908;-78
2021/03/21 05:51:47;;;;;;;;;;;1.20;95.80;;;;;;5112223;28;19915;-75
2021/03/21 05:54:19;;;;;;;;;;;1.20;95.90;;;;;;5112077;28;19912;-79
2021/03/21 05:56:59;;;;;;;;;;;1.20;96.00;;;;;;5111792;28;20052;-75
2021/03/21 05:59:36;;;;;;;;;;;1.20;96.00;;;;;;5112034;28;19954;-75
2021/03/21 06:02:20;;;;;;;;;;;1.20;95.90;;;;;;5111951;28;19912;-75
2021/03/21 06:04:58;;;;;;;;;;;1.20;96.10;;;;;;5111663;28;20364;-75
2021/03/21 06:07:26;;;;;;;;;;;1.30;95.90;;;;;;5111567;28;19916;-76
2021/03/21 06:09:52;;;;;;;;;;;1.30;96.00;;;;;;5112056;28;19908;-75
2021/03/21 06:12:36;;;;;;;;;;;1.30;96.00;;;;;;5111731;28;20364;-78
2021/03/21 06:15:27;;;;;;;;;;;1.30;96.00;;;;;;5098112;28;19948;-78
2021/03/21 06:17:56;;;;;;;;;;;1.30;96.10;;;;;;5082434;28;19916;-75
2021/03/21 06:20:24;;;;;;;;;;;1.30;96.20;;;;;;5091308;28;19973;-75
2021/03/21 06:23:00;;;;;;;;;;;1.40;96.20;;;;;;5091379;28;19912;-75
2021/03/21 06:25:44;;;;;;;;;;;1.40;96.10;;;;;;5091385;28;19916;-75
2021/03/21 06:28:21;;;;;;;;;;;1.40;96.30;;;;;;5090078;28;20369;-75
2021/03/21 06:31:05;;;;;;;;;;;1.50;96.20;;;;;;5090172;28;19995;-75
2021/03/21 06:33:31;;;;;;;;;;;1.50;96.20;;;;;;5091336;28;19908;-75
2021/03/21 06:35:56;;;;;;;;;;;1.50;96.00;;;;;;5090795;28;19916;-75
2021/03/21 06:38:40;;;;;;;;;;;1.60;96.00;;;;;;5091112;28;19961;-75
2021/03/21 06:41:14;;;;;;;;;;;1.60;96.00;;;;;;5091084;28;19912;-75
2021/03/21 06:43:46;;;;;;;;;;;1.70;96.50;;;;;;5087464;28;19926;-79
2021/03/21 06:46:27;;;;;;;;;;;1.70;96.10;;;;;;5086843;28;19915;-75
2021/03/21 06:49:11;;;;;;;;;;;1.70;96.00;;;;;;5091206;28;19940;-76
2021/03/21 06:51:49;;;;;;;;;;;1.70;96.20;;;;;;5091133;28;19970;-75
2021/03/21 06:54:33;;;;;;;;;;;1.70;96.10;;;;;;5091323;28;19909;-75
2021/03/21 06:57:17;;;;;;;;;;;1.70;96.50;;;;;;5090808;28;19956;-76
2021/03/21 07:00:00;;;;;;;;;;;1.70;96.60;;;;;;5089650;28;19916;-76
2021/03/21 07:02:31;;;;;;;;;;;1.60;96.70;;;;;;5091016;28;20012;-76
2021/03/21 07:05:15;;;;;;;;;;;1.60;96.90;;;;;;5090956;28;19908;-76
2021/03/21 07:07:40;;;;;;;;;;;1.70;97.20;;;;;;5090696;28;20257;-75
2021/03/21 07:10:32;;;;;;;;;;;1.70;97.10;;;;;;5091066;28;20002;-75
2021/03/21 07:13:03;;;;;;;;;;;1.70;96.90;;;;;;5091238;28;19999;-75
2021/03/21 07:15:29;;;;;;;;;;;1.70;97.10;;;;;;5084719;28;19908;-79
2021/03/21 07:17:54;;;;;;;;;;;1.70;96.70;;;;;;5108420;28;19923;-75
2021/03/21 07:20:20;;;;;;;;;;;1.80;97.10;;;;;;5114997;28;19998;-75
2021/03/21 07:23:01;;;;;;;;;;;1.80;97.20;;;;;;5114960;28;19921;-77
2021/03/21 07:25:29;;;;;;;;;;;1.80;97.10;;;;;;5093871;28;19947;-79
2021/03/21 07:27:55;;;;;;;;;;;1.90;97.20;;;;;;5091491;28;19909;-79
2021/03/21 07:30:20;;;;;;;;;;;1.90;97.00;;;;;;5093622;28;19969;-75
2021/03/21 07:32:55;;;;;;;;;;;2.00;97.40;;;;;;5093416;28;20293;-75
2021/03/21 07:35:23;;;;;;;;;;;2.00;97.20;;;;;;5093637;28;19952;-75
2021/03/21 07:38:02;;;;;;;;;;;2.00;97.20;;;;;;5093250;28;19991;-75
2021/03/21 07:40:36;;;;;;;;;;;2.00;96.90;;;;;;5093331;28;20354;-76
2021/03/21 07:43:05;;;;;;;;;;;2.10;96.90;;;;;;5093494;28;19914;-75
2021/03/21 07:45:35;;;;;;;;;;;2.10;97.00;;;;;;5092389;28;20136;-77
2021/03/21 07:48:20;;;;;;;;;;;2.10;96.70;;;;;;5091674;28;20395;-75
2021/03/21 07:51:04;;;;;;;;;;;2.10;97.00;;;;;;5092107;28;20015;-75
2021/03/21 07:53:38;;;;;;;;;;;2.10;97.00;;;;;;5092061;28;19995;-78
2021/03/21 07:56:23;;;;;;;;;;;2.10;97.20;;;;;;5093011;28;20362;-76
2021/03/21 07:59:20;;;;;;;;;;;2.20;97.00;;;;;;5093297;28;19944;-76
2021/03/21 08:01:46;;;;;;;;;;;2.20;97.00;;;;;;5078949;28;19912;-79
2021/03/21 08:04:18;;;;;;;;;;;2.30;97.00;;;;;;5093675;28;19908;-75
2021/03/21 08:06:54;;;;;;;;;;;2.40;97.00;;;;;;5093302;28;19912;-76
2021/03/21 08:09:21;;;;;;;;;;;2.40;96.80;;;;;;5093799;28;19966;-75
2021/03/21 08:11:48;;;;;;;;;;;2.40;97.10;;;;;;5093771;28;20292;-76
2021/03/21 08:14:14;;;;;;;;;;;2.40;97.40;;;;;;5093013;28;20423;-78
2021/03/21 08:16:44;;;;;;;;;;;2.50;97.50;;;;;;5092279;28;19989;-75
2021/03/21 08:19:21;;;;;;;;;;;2.50;97.40;;;;;;5107534;28;19954;-76
2021/03/21 08:21:47;;;;;;;;;;;2.60;97.20;;;;;;5090942;28;20330;-78
2021/03/21 08:24:15;;;;;;;;;;;2.60;97.20;;;;;;5093074;28;19908;-79
2021/03/21 08:26:42;;;;;;;;;;;2.60;97.30;;;;;;5092191;28;20368;-78
2021/03/21 08:29:07;;;;;;;;;;;2.70;97.40;;;;;;5092599;28;19916;-76
2021/03/21 08:31:36;;;;;;;;;;;2.70;97.20;;;;;;5092904;28;19919;-79
2021/03/21 08:34:16;;;;;;;;;;;2.60;97.30;;;;;;5091116;28;19908;-76
2021/03/21 08:36:42;;;;;;;;;;;2.60;97.30;;;;;;5092401;28;20323;-75
2021/03/21 08:39:26;;;;;;;;;;;2.70;97.30;;;;;;5092864;28;19915;-75
2021/03/21 08:41:53;;;;;;;;;;;2.70;97.40;;;;;;5092019;28;19916;-75
2021/03/21 08:44:31;;;;;;;;;;;2.70;97.30;;;;;;5092088;28;19987;-79
2021/03/21 08:46:57;;;;;;;;;;;2.80;97.50;;;;;;5090056;28;19912;-75
2021/03/21 08:49:24;;;;;;;;;;;2.80;97.60;;;;;;5092446;28;20369;-75
2021/03/21 08:51:49;;;;;;;;;;;2.90;97.70;;;;;;5092300;28;19914;-76
2021/03/21 08:54:22;;;;;;;;;;;3.00;97.20;;;;;;5092257;28;19908;-80
2021/03/21 08:57:07;;;;;;;;;;;3.10;97.30;;;;;;5091494;28;19908;-75
2021/03/21 08:59:36;;;;;;;;;;;3.20;97.50;;;;;;5092043;28;19912;-75
2021/03/21 09:02:02;;;;;;;;;;;3.30;97.00;;;;;;5090625;28;19991;-79
2021/03/21 09:04:27;;;;;;;;;;;3.40;97.00;;;;;;5090735;28;19916;-79
2021/03/21 09:06:53;;;;;;;;;;;3.50;96.90;;;;;;5091676;28;20329;-75
2021/03/21 09:09:21;;;;;;;;;;;3.60;96.90;;;;;;5091735;28;20373;-75
2021/03/21 09:11:50;;;;;;;;;;;3.60;96.40;;;;;;5091847;28;19913;-75
2021/03/21 09:14:20;;;;;;;;;;;3.60;96.50;;;;;;5091255;28;20308;-78
2021/03/21 09:17:03;;;;;;;;;;;3.60;96.70;;;;;;5091107;28;19916;-76
2021/03/21 09:19:33;;;;;;;;;;;3.70;96.60;;;;;;5090307;28;19908;-75
2021/03/21 09:21:59;;;;;;;;;;;3.70;96.40;;;;;;5091514;28;20425;-75
2021/03/21 09:24:27;;;;;;;;;;;3.60;96.60;;;;;;5090208;28;19908;-75
2021/03/21 09:26:52;;;;;;;;;;;3.60;96.70;;;;;;5091093;28;19912;-76
2021/03/21 09:29:21;;;;;;;;;;;3.60;96.40;;;;;;5091564;28;20258;-78
2021/03/21 09:31:47;;;;;;;;;;;3.70;96.40;;;;;;5091279;28;19908;-77
2021/03/21 09:34:29;;;;;;;;;;;3.70;96.00;;;;;;5091206;28;19919;-76
2021/03/21 09:36:59;;;;;;;;;;;3.70;96.30;;;;;;5091023;28;19908;-76
2021/03/21 09:39:27;;;;;;;;;;;3.70;96.20;;;;;;5090775;28;19943;-76
2021/03/21 09:41:53;;;;;;;;;;;3.70;96.40;;;;;;5090509;28;19977;-76
2021/03/21 09:44:18;;;;;;;;;;;3.70;96.20;;;;;;5090784;28;20434;-78
2021/03/21 09:46:47;;;;;;;;;;;3.70;96.30;;;;;;5090808;28;19931;-76
2021/03/21 09:49:19;;;;;;;;;;;3.70;96.10;;;;;;5091109;28;19915;-77
2021/03/21 09:51:58;;;;;;;;;;;3.70;96.20;;;;;;5091121;28;19923;-75
2021/03/21 09:54:27;;;;;;;;;;;3.70;95.90;;;;;;5090147;28;19957;-75
2021/03/21 09:57:01;;;;;;;;;;;3.70;96.10;;;;;;5090718;28;19908;-78
2021/03/21 09:59:45;;;;;;;;;;;3.70;96.00;;;;;;5090678;28;19908;-80
2021/03/21 10:02:18;;;;;;;;;;;3.70;96.20;;;;;;5090818;28;20281;-75
2021/03/21 10:05:02;;;;;;;;;;;3.70;95.70;;;;;;5091025;28;19965;-76
2021/03/21 10:07:37;;;;;;;;;;;3.70;95.80;;;;;;5090618;28;19915;-79
2021/03/21 10:10:07;;;;;;;;;;;3.80;96.20;;;;;;5091024;28;20039;-75
2021/03/21 10:12:37;;;;;;;;;;;3.80;96.00;;;;;;5089213;28;19908;-75
2021/03/21 10:15:03;;;;;;;;;;;3.90;96.40;;;;;;5090766;28;19962;-76
2021/03/21 10:17:28;;;;;;;;;;;4.00;96.30;;;;;;5092815;28;19909;-78
2021/03/21 10:19:55;;;;;;;;;;;4.10;96.30;;;;;;5092567;28;19919;-78
2021/03/21 10:22:20;;;;;;;;;;;4.10;95.90;;;;;;5093669;28;20356;-78
2021/03/21 10:24:47;;;;;;;;;;;4.20;96.20;;;;;;5092927;28;19908;-78
2021/03/21 10:27:15;;;;;;;;;;;4.20;95.90;;;;;;5093647;28;19908;-78
2021/03/21 10:29:42;;;;;;;;;;;4.30;95.80;;;;;;5093435;28;20382;-78
2021/03/21 10:32:26;;;;;;;;;;;4.40;95.70;;;;;;5090769;28;19946;-77
2021/03/21 10:34:53;;;;;;;;;;;4.50;95.90;;;;;;5090305;28;19916;-78
2021/03/21 10:37:37;;;;;;;;;;;4.70;96.40;;;;;;5090097;28;20433;-75
2021/03/21 10:40:04;;;;;;;;;;;4.80;96.10;;;;;;5090616;28;19916;-75
2021/03/21 10:42:40;;;;;;;;;;;5.00;96.50;;;;;;5091185;28;19915;-77
2021/03/21 10:45:11;;;;;;;;;;;5.20;95.90;;;;;;5091045;28;19934;-79
2021/03/21 10:47:37;;;;;;;;;;;5.30;95.50;;;;;;5090776;28;19999;-76
2021/03/21 10:50:15;;;;;;;;;;;5.50;94.50;;;;;;5093490;28;20381;-75
2021/03/21 10:52:41;;;;;;;;;;;5.50;94.00;;;;;;5095160;28;19915;-76
2021/03/21 10:55:10;;;;;;;;;;;5.40;93.30;;;;;;5094060;28;19915;-75
2021/03/21 10:57:44;;;;;;;;;;;5.40;93.60;;;;;;5093465;28;19991;-75
2021/03/21 11:00:18;;;;;;;;;;;5.50;94.50;;;;;;5096023;28;19961;-80
2021/03/21 11:02:45;;;;;;;;;;;5.60;94.30;;;;;;5096276;28;19913;-75
2021/03/21 11:05:29;;;;;;;;;;;5.60;93.90;;;;;;5095314;28;20454;-75
2021/03/21 11:08:04;;;;;;;;;;;5.70;93.50;;;;;;5086664;28;19916;-77
2021/03/21 11:10:34;;;;;;;;;;;5.60;93.80;;;;;;5093472;28;19908;-75
2021/03/21 11:13:00;;;;;;;;;;;5.60;94.30;;;;;;5089188;28;19973;-75
2021/03/21 11:15:59;;;;;;;;;;;5.60;94.70;;;;;;5093828;28;19912;-75
2021/03/21 11:18:26;;;;;;;;;;;5.70;94.70;;;;;;5076782;28;19918;-79
2021/03/21 11:21:01;;;;;;;;;;;5.50;95.20;;;;;;5094726;28;20030;-75
2021/03/21 11:23:26;;;;;;;;;;;5.40;95.80;;;;;;5085767;28;19912;-78
2021/03/21 11:25:52;;;;;;;;;;;5.50;95.80;;;;;;5093058;28;19919;-76
2021/03/21 11:28:35;;;;;;;;;;;5.60;96.60;;;;;;5094457;28;19912;-76
2021/03/21 11:31:02;;;;;;;;;;;5.70;96.20;;;;;;5076372;28;19916;-76
2021/03/21 11:33:33;;;;;;;;;;;5.70;96.10;;;;;;5090982;28;19963;-76
2021/03/21 11:36:08;;;;;;;;;;;5.70;96.20;;;;;;5092659;28;20147;-77
2021/03/21 11:38:37;;;;;;;;;;;5.70;96.90;;;;;;5086449;28;20046;-75
2021/03/21 11:41:04;;;;;;;;;;;5.70;96.60;;;;;;5094409;28;19919;-76
2021/03/21 11:43:30;;;;;;;;;;;5.80;97.10;;;;;;5094375;28;19912;-76
2021/03/21 11:46:10;;;;;;;;;;;5.90;96.80;;;;;;5094115;28;20422;-77
2021/03/21 11:48:36;;;;;;;;;;;5.90;96.70;;;;;;5094416;28;20356;-79
2021/03/21 11:51:02;;;;;;;;;;;6.00;97.30;;;;;;5094419;28;19908;-79
2021/03/21 11:53:36;;;;;;;;;;;6.10;97.20;;;;;;5094445;28;19908;-76
2021/03/21 11:56:10;;;;;;;;;;;6.30;97.00;;;;;;5093970;28;19947;-78
2021/03/21 11:58:40;;;;;;;;;;;6.50;97.10;;;;;;5094402;28;19912;-76
2021/03/21 12:01:11;;;;;;;;;;;6.60;96.90;;;;;;5093490;28;19938;-78
2021/03/21 12:03:57;;;;;;;;;;;6.60;96.90;;;;;;5094297;28;19908;-75
2021/03/21 12:06:23;;;;;;;;;;;6.60;96.70;;;;;;5091589;28;19908;-76
2021/03/21 12:08:48;;;;;;;;;;;6.60;96.60;;;;;;5100226;28;20034;-76
2021/03/21 12:11:19;;;;;;;;;;;6.60;96.50;;;;;;5112830;28;19912;-77
2021/03/21 12:13:45;;;;;;;;;;;6.50;96.50;;;;;;5114439;28;19953;-76
2021/03/21 12:16:29;;;;;;;;;;;6.40;96.20;;;;;;5114180;28;19908;-76
2021/03/21 12:18:56;;;;;;;;;;;6.40;96.20;;;;;;5114146;28;19915;-76
2021/03/21 12:21:22;;;;;;;;;;;6.40;96.90;;;;;;5114093;28;19965;-79
2021/03/21 12:23:47;;;;;;;;;;;6.40;96.20;;;;;;5114049;28;19951;-75
2021/03/21 12:26:13;;;;;;;;;;;6.30;95.80;;;;;;5113713;28;19990;-76
2021/03/21 12:28:48;;;;;;;;;;;6.30;96.50;;;;;;5114391;28;20344;-76
2021/03/21 12:31:17;;;;;;;;;;;6.30;96.90;;;;;;5113977;28;20261;-75
2021/03/21 12:33:44;;;;;;;;;;;6.30;96.40;;;;;;5113909;28;19967;-75
2021/03/21 12:36:10;;;;;;;;;;;6.20;96.70;;;;;;5113523;28;19915;-75
2021/03/21 12:38:55;;;;;;;;;;;6.10;97.20;;;;;;5092860;28;20234;-75
2021/03/21 12:41:30;;;;;;;;;;;6.00;97.80;;;;;;5091924;28;20081;-77
2021/03/21 12:44:09;;;;;;;;;;;5.90;98.50;;;;;;5093266;28;19908;-75
2021/03/21 12:46:46;;;;;;;;;;;5.90;98.70;;;;;;5091745;28;19908;-78
2021/03/21 12:49:27;;;;;;;;;;;5.80;99.00;;;;;;5093195;28;19908;-76
2021/03/21 12:51:56;;;;;;;;;;;5.70;99.60;;;;;;5091752;28;19908;-78
2021/03/21 12:54:21;;;;;;;;;;;5.70;99.90;;;;;;5093462;28;19995;-76
2021/03/21 12:56:47;;;;;;;;;;;5.70;99.90;;;;;;5092570;28;20396;-80
2021/03/21 12:59:12;;;;;;;;;;;5.80;99.90;;;;;;5091853;28;19908;-76
2021/03/21 13:01:43;;;;;;;;;;;5.90;99.90;;;;;;5093055;28;20280;-76
2021/03/21 13:04:08;;;;;;;;;;;6.00;99.90;;;;;;5091760;28;19998;-76
2021/03/21 13:06:34;;;;;;;;;;;6.10;99.90;;;;;;5092632;28;19947;-75
2021/03/21 13:08:59;;;;;;;;;;;6.10;99.90;;;;;;5092584;28;19908;-76
2021/03/21 13:11:25;;;;;;;;;;;6.20;99.90;;;;;;5092617;28;19915;-80
2021/03/21 13:13:50;;;;;;;;;;;6.40;99.90;;;;;;5091821;28;19947;-75
2021/03/21 13:16:17;;;;;;;;;;;6.50;99.90;;;;;;5092681;28;19908;-76
2021/03/21 13:18:42;;;;;;;;;;;6.60;99.90;;;;;;5092726;28;19994;-75
2021/03/21 13:21:08;;;;;;;;;;;6.50;99.90;;;;;;5092472;28;20357;-76
2021/03/21 13:23:33;;;;;;;;;;;6.50;99.90;;;;;;5091260;28;19916;-78
2021/03/21 13:25:59;;;;;;;;;;;6.50;99.90;;;;;;5090915;28;19958;-75
2021/03/21 13:28:24;;;;;;;;;;;6.60;99.90;;;;;;5092502;28;20270;-75
2021/03/21 13:30:51;;;;;;;;;;;6.60;99.90;;;;;;5092359;28;19908;-76
2021/03/21 13:33:21;;;;;;;;;;;6.70;99.90;;;;;;5092489;28;19908;-75
2021/03/21 13:35:48;;;;;;;;;;;6.60;99.90;;;;;;5090618;28;20002;-75
2021/03/21 13:38:13;;;;;;;;;;;6.60;99.90;;;;;;5084160;28;19916;-79
2021/03/21 13:40:40;;;;;;;;;;;6.60;99.90;;;;;;5112494;28;19965;-75
2021/03/21 13:43:06;;;;;;;;;;;6.50;99.90;;;;;;5112501;28;19999;-80
2021/03/21 13:45:33;;;;;;;;;;;6.40;99.90;;;;;;5111234;28;19939;-77
2021/03/21 13:47:59;;;;;;;;;;;6.40;99.90;;;;;;5112238;27;19908;-76
2021/03/21 13:50:25;;;;;;;;;;;6.50;99.90;;;;;;5112380;28;19915;-76
2021/03/21 13:52:50;;;;;;;;;;;6.60;99.90;;;;;;5110889;28;19915;-76
2021/03/21 13:55:31;;;;;;;;;;;6.50;99.90;;;;;;5112356;28;19908;-77
2021/03/21 13:57:57;;;;;;;;;;;6.50;99.90;;;;;;5110686;28;19947;-76
2021/03/21 14:00:23;;;;;;;;;;;6.50;99.90;;;;;;5112363;28;19965;-79
2021/03/21 14:02:48;;;;;;;;;;;6.50;99.90;;;;;;5112337;28;19908;-80
2021/03/21 14:05:15;;;;;;;;;;;6.50;99.90;;;;;;5112126;28;19908;-75
2021/03/21 14:07:40;;;;;;;;;;;6.40;99.90;;;;;;5100100;28;19908;-75
2021/03/21 14:10:06;;;;;;;;;;;6.20;99.90;;;;;;5098836;28;19934;-76
2021/03/21 14:12:32;;;;;;;;;;;6.10;99.90;;;;;;5111952;28;19908;-75
2021/03/21 14:14:57;;;;;;;;;;;6.00;99.90;;;;;;5112171;28;19953;-75
2021/03/21 14:17:23;;;;;;;;;;;5.90;99.90;;;;;;5111730;28;20368;-77
2021/03/21 14:19:48;;;;;;;;;;;5.80;99.90;;;;;;5112403;28;19930;-75
2021/03/21 14:22:15;;;;;;;;;;;5.80;99.90;;;;;;5112111;28;19943;-75
2021/03/21 14:24:41;;;;;;;;;;;5.80;99.90;;;;;;5113306;28;19908;-78
2021/03/21 14:27:07;;;;;;;;;;;5.80;99.90;;;;;;5113157;28;19914;-75
2021/03/21 14:29:32;;;;;;;;;;;5.80;99.90;;;;;;5113123;28;20249;-75
2021/03/21 14:31:58;;;;;;;;;;;5.80;99.90;;;;;;5112129;28;19961;-75
2021/03/21 14:34:23;;;;;;;;;;;5.80;99.90;;;;;;5111686;28;19916;-76
2021/03/21 14:36:49;;;;;;;;;;;5.80;99.90;;;;;;5106967;28;20349;-77
2021/03/21 14:39:14;;;;;;;;;;;5.80;99.90;;;;;;5091011;28;19953;-76
2021/03/21 14:41:40;;;;;;;;;;;5.80;99.90;;;;;;5091583;28;20006;-75
2021/03/21 14:44:05;;;;;;;;;;;5.80;99.90;;;;;;5091367;28;20281;-78
2021/03/21 14:46:31;;;;;;;;;;;5.80;99.90;;;;;;5091078;28;19923;-75
2021/03/21 14:48:56;;;;;;;;;;;5.80;99.90;;;;;;5089920;28;19908;-76
2021/03/21 14:51:22;;;;;;;;;;;5.90;99.90;;;;;;5091284;28;19993;-75